sensor_id;sensor_type;location;lat;lon;timestamp;temperature;humidity
40177;DHT22;31511;46.176;9.874;2023-04-01T00:01:21;8.10;30.20
40177;DHT22;31511;46.176;9.874;2023-04-01T00:04:06;7.90;32.00
40177;DHT22;31511;46.176;9.874;2023-04-01T00:06:50;7.90;31.80
40177;DHT22;31511;46.176;9.874;2023-04-01T00:09:36;7.70;27.20
40177;DHT22;31511;46.176;9.874;2023-04-01T00:12:22;7.60;25.90
40177;DHT22;31511;46.176;9.874;2023-04-01T00:15:10;7.50;40.00
40177;DHT22;31511;46.176;9.874;2023-04-01T00:17:55;7.70;34.70
40177;DHT22;31511;46.176;9.874;2023-04-01T00:20:43;7.60;28.00
40177;DHT22;31511;46.176;9.874;2023-04-01T00:23:29;7.80;29.40
40177;DHT22;31511;46.176;9.874;2023-04-01T00:26:14;7.80;27.30
40177;DHT22;31511;46.176;9.874;2023-04-01T00:29:02;7.90;22.90
40177;DHT22;31511;46.176;9.874;2023-04-01T00:31:47;7.70;19.30
40177;DHT22;31511;46.176;9.874;2023-04-01T00:34:32;7.70;27.50
40177;DHT22;31511;46.176;9.874;2023-04-01T00:37:17;7.50;23.50
40177;DHT22;31511;46.176;9.874;2023-04-01T00:40:01;7.40;29.60
40177;DHT22;31511;46.176;9.874;2023-04-01T00:42:45;7.20;50.10
40177;DHT22;31511;46.176;9.874;2023-04-01T00:45:37;7.40;61.40
40177;DHT22;31511;46.176;9.874;2023-04-01T00:48:24;7.40;56.70
40177;DHT22;31511;46.176;9.874;2023-04-01T00:51:31;7.50;49.60
40177;DHT22;31511;46.176;9.874;2023-04-01T00:54:16;7.50;40.80
40177;DHT22;31511;46.176;9.874;2023-04-01T00:57:12;7.40;40.10
40177;DHT22;31511;46.176;9.874;2023-04-01T00:59:57;7.30;41.80
40177;DHT22;31511;46.176;9.874;2023-04-01T01:02:43;7.30;31.80
40177;DHT22;31511;46.176;9.874;2023-04-01T01:05:39;7.20;41.60
40177;DHT22;31511;46.176;9.874;2023-04-01T01:11:40;7.20;48.20
40177;DHT22;31511;46.176;9.874;2023-04-01T01:17:19;7.20;30.50
40177;DHT22;31511;46.176;9.874;2023-04-01T01:20:20;7.20;38.30
40177;DHT22;31511;46.176;9.874;2023-04-01T01:29:23;7.20;29.90
40177;DHT22;31511;46.176;9.874;2023-04-01T01:32:17;7.40;30.70
40177;DHT22;31511;46.176;9.874;2023-04-01T01:35:46;7.30;29.40
40177;DHT22;31511;46.176;9.874;2023-04-01T01:38:14;7.40;23.20
40177;DHT22;31511;46.176;9.874;2023-04-01T01:41:00;7.30;24.50
40177;DHT22;31511;46.176;9.874;2023-04-01T01:43:46;7.10;24.50
40177;DHT22;31511;46.176;9.874;2023-04-01T01:46:32;6.90;37.70
40177;DHT22;31511;46.176;9.874;2023-04-01T01:49:16;7.20;42.40
40177;DHT22;31511;46.176;9.874;2023-04-01T01:52:02;7.10;33.20
40177;DHT22;31511;46.176;9.874;2023-04-01T01:54:51;7.20;35.80
40177;DHT22;31511;46.176;9.874;2023-04-01T01:57:36;7.30;22.40
40177;DHT22;31511;46.176;9.874;2023-04-01T02:00:22;7.10;21.80
40177;DHT22;31511;46.176;9.874;2023-04-01T02:03:06;7.20;22.60
40177;DHT22;31511;46.176;9.874;2023-04-01T02:05:50;7.20;14.50
40177;DHT22;31511;46.176;9.874;2023-04-01T02:08:36;7.00;9.50
40177;DHT22;31511;46.176;9.874;2023-04-01T02:11:27;6.90;16.90
40177;DHT22;31511;46.176;9.874;2023-04-01T02:14:18;7.00;26.10
40177;DHT22;31511;46.176;9.874;2023-04-01T02:17:06;7.30;21.50
40177;DHT22;31511;46.176;9.874;2023-04-01T02:22:47;7.30;14.50
40177;DHT22;31511;46.176;9.874;2023-04-01T02:25:33;7.20;9.80
40177;DHT22;31511;46.176;9.874;2023-04-01T02:28:21;7.20;2.00
40177;DHT22;31511;46.176;9.874;2023-04-01T02:31:08;7.20;9.10
40177;DHT22;31511;46.176;9.874;2023-04-01T02:33:54;7.00;7.10
40177;DHT22;31511;46.176;9.874;2023-04-01T02:36:38;6.80;17.40
40177;DHT22;31511;46.176;9.874;2023-04-01T02:39:23;6.90;24.00
40177;DHT22;31511;46.176;9.874;2023-04-01T02:42:10;7.10;21.30
40177;DHT22;31511;46.176;9.874;2023-04-01T02:44:55;7.10;13.00
40177;DHT22;31511;46.176;9.874;2023-04-01T02:47:39;7.00;12.20
40177;DHT22;31511;46.176;9.874;2023-04-01T02:50:24;6.90;10.60
40177;DHT22;31511;46.176;9.874;2023-04-01T02:53:10;6.80;21.80
40177;DHT22;31511;46.176;9.874;2023-04-01T02:55:56;6.80;31.30
40177;DHT22;31511;46.176;9.874;2023-04-01T02:58:40;6.90;30.70
40177;DHT22;31511;46.176;9.874;2023-04-01T03:01:25;7.00;21.90
40177;DHT22;31511;46.176;9.874;2023-04-01T03:04:11;7.00;17.30
40177;DHT22;31511;46.176;9.874;2023-04-01T03:06:56;6.90;15.60
40177;DHT22;31511;46.176;9.874;2023-04-01T03:09:40;7.00;11.90
40177;DHT22;31511;46.176;9.874;2023-04-01T03:12:25;7.20;2.40
40177;DHT22;31511;46.176;9.874;2023-04-01T03:15:11;7.20;1.00
40177;DHT22;31511;46.176;9.874;2023-04-01T03:17:58;7.20;3.00
40177;DHT22;31511;46.176;9.874;2023-04-01T03:20:42;7.10;1.30
40177;DHT22;31511;46.176;9.874;2023-04-01T03:23:28;7.10;3.20
40177;DHT22;31511;46.176;9.874;2023-04-01T03:26:14;7.00;1.00
40177;DHT22;31511;46.176;9.874;2023-04-01T03:28:59;6.80;1.00
40177;DHT22;31511;46.176;9.874;2023-04-01T03:31:43;6.80;1.00
40177;DHT22;31511;46.176;9.874;2023-04-01T03:34:28;6.70;1.00
40177;DHT22;31511;46.176;9.874;2023-04-01T03:37:13;6.70;10.30
40177;DHT22;31511;46.176;9.874;2023-04-01T03:39:59;6.80;1.10
40177;DHT22;31511;46.176;9.874;2023-04-01T03:42:43;6.90;1.00
40177;DHT22;31511;46.176;9.874;2023-04-01T03:45:29;6.80;1.70
40177;DHT22;31511;46.176;9.874;2023-04-01T03:48:15;6.80;8.50
40177;DHT22;31511;46.176;9.874;2023-04-01T03:51:00;6.80;3.20
40177;DHT22;31511;46.176;9.874;2023-04-01T03:53:45;6.80;6.40
40177;DHT22;31511;46.176;9.874;2023-04-01T03:56:29;6.90;5.30
40177;DHT22;31511;46.176;9.874;2023-04-01T03:59:14;7.00;2.60
40177;DHT22;31511;46.176;9.874;2023-04-01T04:01:59;7.00;3.00
40177;DHT22;31511;46.176;9.874;2023-04-01T04:04:43;6.90;1.00
40177;DHT22;31511;46.176;9.874;2023-04-01T04:07:28;6.90;1.00
40177;DHT22;31511;46.176;9.874;2023-04-01T04:10:14;6.90;1.00
40177;DHT22;31511;46.176;9.874;2023-04-01T04:12:59;6.70;1.00
40177;DHT22;31511;46.176;9.874;2023-04-01T04:15:43;6.70;1.00
40177;DHT22;31511;46.176;9.874;2023-04-01T04:18:29;6.60;1.00
40177;DHT22;31511;46.176;9.874;2023-04-01T04:21:15;6.40;2.90
40177;DHT22;31511;46.176;9.874;2023-04-01T04:24:00;6.40;17.30
40177;DHT22;31511;46.176;9.874;2023-04-01T04:26:44;6.50;14.90
40177;DHT22;31511;46.176;9.874;2023-04-01T04:29:30;6.50;17.80
40177;DHT22;31511;46.176;9.874;2023-04-01T04:32:15;6.40;16.70
40177;DHT22;31511;46.176;9.874;2023-04-01T04:34:59;6.50;17.90
40177;DHT22;31511;46.176;9.874;2023-04-01T04:37:44;6.50;14.60
40177;DHT22;31511;46.176;9.874;2023-04-01T04:40:29;6.50;14.60
40177;DHT22;31511;46.176;9.874;2023-04-01T04:43:14;6.50;11.80
40177;DHT22;31511;46.176;9.874;2023-04-01T04:45:59;6.70;11.90
40177;DHT22;31511;46.176;9.874;2023-04-01T04:48:47;6.60;9.30
40177;DHT22;31511;46.176;9.874;2023-04-01T04:51:31;6.70;3.40
40177;DHT22;31511;46.176;9.874;2023-04-01T04:54:17;6.40;1.80
40177;DHT22;31511;46.176;9.874;2023-04-01T04:57:02;6.40;10.20
40177;DHT22;31511;46.176;9.874;2023-04-01T04:59:46;6.50;6.80
40177;DHT22;31511;46.176;9.874;2023-04-01T05:02:31;6.50;7.90
40177;DHT22;31511;46.176;9.874;2023-04-01T05:05:15;6.50;7.50
40177;DHT22;31511;46.176;9.874;2023-04-01T05:08:00;6.30;12.60
40177;DHT22;31511;46.176;9.874;2023-04-01T05:10:44;6.30;18.90
40177;DHT22;31511;46.176;9.874;2023-04-01T05:13:30;6.20;18.90
40177;DHT22;31511;46.176;9.874;2023-04-01T05:16:15;6.20;12.60
40177;DHT22;31511;46.176;9.874;2023-04-01T05:19:00;6.10;14.80
40177;DHT22;31511;46.176;9.874;2023-04-01T05:21:44;6.00;20.40
40177;DHT22;31511;46.176;9.874;2023-04-01T05:24:29;6.10;25.00
40177;DHT22;31511;46.176;9.874;2023-04-01T05:27:14;6.20;25.00
40177;DHT22;31511;46.176;9.874;2023-04-01T05:29:59;6.10;14.90
40177;DHT22;31511;46.176;9.874;2023-04-01T05:32:43;6.30;22.80
40177;DHT22;31511;46.176;9.874;2023-04-01T05:35:29;6.30;17.50
40177;DHT22;31511;46.176;9.874;2023-04-01T05:38:14;6.20;9.70
40177;DHT22;31511;46.176;9.874;2023-04-01T05:40:59;6.20;17.40
40177;DHT22;31511;46.176;9.874;2023-04-01T05:43:44;6.20;16.10
40177;DHT22;31511;46.176;9.874;2023-04-01T05:46:29;6.10;17.50
40177;DHT22;31511;46.176;9.874;2023-04-01T05:49:13;6.20;22.00
40177;DHT22;31511;46.176;9.874;2023-04-01T05:51:59;6.20;17.50
40177;DHT22;31511;46.176;9.874;2023-04-01T05:54:43;6.10;23.60
40177;DHT22;31511;46.176;9.874;2023-04-01T05:57:28;6.20;32.80
40177;DHT22;31511;46.176;9.874;2023-04-01T06:00:14;6.40;20.30
40177;DHT22;31511;46.176;9.874;2023-04-01T06:02:58;6.50;3.80
40177;DHT22;31511;46.176;9.874;2023-04-01T06:05:43;6.60;1.00
40177;DHT22;31511;46.176;9.874;2023-04-01T06:08:29;6.60;1.00
40177;DHT22;31511;46.176;9.874;2023-04-01T06:11:27;6.50;1.00
40177;DHT22;31511;46.176;9.874;2023-04-01T06:14:17;6.50;1.00
40177;DHT22;31511;46.176;9.874;2023-04-01T06:17:12;6.40;1.00
40177;DHT22;31511;46.176;9.874;2023-04-01T06:23:10;6.50;1.00
40177;DHT22;31511;46.176;9.874;2023-04-01T06:26:18;6.60;1.00
40177;DHT22;31511;46.176;9.874;2023-04-01T06:38:02;7.00;1.00
40177;DHT22;31511;46.176;9.874;2023-04-01T06:41:38;7.10;1.00
40177;DHT22;31511;46.176;9.874;2023-04-01T06:58:12;7.20;1.00
40177;DHT22;31511;46.176;9.874;2023-04-01T07:01:20;7.30;1.00
40177;DHT22;31511;46.176;9.874;2023-04-01T07:04:16;7.50;1.00
40177;DHT22;31511;46.176;9.874;2023-04-01T07:10:01;7.70;1.00
40177;DHT22;31511;46.176;9.874;2023-04-01T07:12:47;7.70;1.00
40177;DHT22;31511;46.176;9.874;2023-04-01T07:15:36;7.90;1.00
40177;DHT22;31511;46.176;9.874;2023-04-01T07:18:23;7.90;1.00
40177;DHT22;31511;46.176;9.874;2023-04-01T07:21:17;7.90;1.00
40177;DHT22;31511;46.176;9.874;2023-04-01T07:24:05;8.10;1.00
40177;DHT22;31511;46.176;9.874;2023-04-01T07:26:54;8.30;1.00
40177;DHT22;31511;46.176;9.874;2023-04-01T07:29:39;8.30;1.00
40177;DHT22;31511;46.176;9.874;2023-04-01T07:32:33;8.30;99.90
40177;DHT22;31511;46.176;9.874;2023-04-01T07:35:37;8.30;99.90
40177;DHT22;31511;46.176;9.874;2023-04-01T07:41:30;8.60;99.90
40177;DHT22;31511;46.176;9.874;2023-04-01T07:47:17;8.90;99.90
40177;DHT22;31511;46.176;9.874;2023-04-01T07:52:54;8.90;99.90
40177;DHT22;31511;46.176;9.874;2023-04-01T07:58:31;9.00;99.90
40177;DHT22;31511;46.176;9.874;2023-04-01T08:01:27;9.20;99.90
40177;DHT22;31511;46.176;9.874;2023-04-01T08:07:17;9.40;99.90
40177;DHT22;31511;46.176;9.874;2023-04-01T08:10:06;9.60;99.90
40177;DHT22;31511;46.176;9.874;2023-04-01T08:21:38;10.10;99.90
40177;DHT22;31511;46.176;9.874;2023-04-01T08:24:34;10.20;99.90
40177;DHT22;31511;46.176;9.874;2023-04-01T08:30:16;10.50;99.90
40177;DHT22;31511;46.176;9.874;2023-04-01T08:33:10;10.60;99.90
40177;DHT22;31511;46.176;9.874;2023-04-01T08:36:05;10.60;99.90
40177;DHT22;31511;46.176;9.874;2023-04-01T08:38:52;10.70;99.90
40177;DHT22;31511;46.176;9.874;2023-04-01T08:50:56;11.30;99.90
40177;DHT22;31511;46.176;9.874;2023-04-01T09:05:38;11.60;99.90
40177;DHT22;31511;46.176;9.874;2023-04-01T09:20:42;12.10;99.90
40177;DHT22;31511;46.176;9.874;2023-04-01T09:23:32;12.30;99.90
40177;DHT22;31511;46.176;9.874;2023-04-01T09:40:57;13.40;99.90
40177;DHT22;31511;46.176;9.874;2023-04-01T10:10:37;16.30;99.90
40177;DHT22;31511;46.176;9.874;2023-04-01T10:22:28;21.30;99.90
40177;DHT22;31511;46.176;9.874;2023-04-01T10:31:20;18.70;99.90
40177;DHT22;31511;46.176;9.874;2023-04-01T10:36:59;18.70;99.90
40177;DHT22;31511;46.176;9.874;2023-04-01T10:45:50;19.40;99.90
40177;DHT22;31511;46.176;9.874;2023-04-01T10:54:34;16.40;99.90
40177;DHT22;31511;46.176;9.874;2023-04-01T10:57:31;16.50;99.90
40177;DHT22;31511;46.176;9.874;2023-04-01T11:00:23;17.10;99.90
40177;DHT22;31511;46.176;9.874;2023-04-01T11:06:16;17.90;99.90
40177;DHT22;31511;46.176;9.874;2023-04-01T11:12:30;20.80;99.90
40177;DHT22;31511;46.176;9.874;2023-04-01T11:15:31;23.20;99.90
40177;DHT22;31511;46.176;9.874;2023-04-01T11:19:04;21.60;99.90
40177;DHT22;31511;46.176;9.874;2023-04-01T11:24:31;20.60;99.90
40177;DHT22;31511;46.176;9.874;2023-04-01T11:27:30;20.50;99.90
40177;DHT22;31511;46.176;9.874;2023-04-01T11:33:23;21.70;99.90
40177;DHT22;31511;46.176;9.874;2023-04-01T11:36:24;21.00;99.90
40177;DHT22;31511;46.176;9.874;2023-04-01T11:48:07;18.20;99.90
40177;DHT22;31511;46.176;9.874;2023-04-01T11:50:57;18.30;99.90
40177;DHT22;31511;46.176;9.874;2023-04-01T11:53:59;18.20;99.90
40177;DHT22;31511;46.176;9.874;2023-04-01T12:16:45;16.80;99.90
40177;DHT22;31511;46.176;9.874;2023-04-01T12:25:52;17.40;99.90
40177;DHT22;31511;46.176;9.874;2023-04-01T12:31:26;18.00;99.90
40177;DHT22;31511;46.176;9.874;2023-04-01T12:37:17;18.10;99.90
40177;DHT22;31511;46.176;9.874;2023-04-01T12:40:18;18.30;99.90
40177;DHT22;31511;46.176;9.874;2023-04-01T12:43:27;18.70;99.90
40177;DHT22;31511;46.176;9.874;2023-04-01T12:46:23;19.20;99.90
40177;DHT22;31511;46.176;9.874;2023-04-01T13:16:03;18.70;99.90
40177;DHT22;31511;46.176;9.874;2023-04-01T13:35:52;18.60;99.90
40177;DHT22;31511;46.176;9.874;2023-04-01T13:53:26;18.50;99.90
40177;DHT22;31511;46.176;9.874;2023-04-01T14:11:10;18.60;99.90
40177;DHT22;31511;46.176;9.874;2023-04-01T14:26:25;18.30;99.90
40177;DHT22;31511;46.176;9.874;2023-04-01T14:28:53;18.20;99.90
40177;DHT22;31511;46.176;9.874;2023-04-01T14:31:58;18.30;99.90
40177;DHT22;31511;46.176;9.874;2023-04-01T14:34:55;18.40;99.90
40177;DHT22;31511;46.176;9.874;2023-04-01T14:52:16;18.10;99.90
40177;DHT22;31511;46.176;9.874;2023-04-01T14:58:12;18.00;99.90
40177;DHT22;31511;46.176;9.874;2023-04-01T15:04:03;17.80;99.90
40177;DHT22;31511;46.176;9.874;2023-04-01T15:07:16;17.40;99.90
40177;DHT22;31511;46.176;9.874;2023-04-01T15:21:31;17.30;99.90
40177;DHT22;31511;46.176;9.874;2023-04-01T15:24:25;17.20;99.90
40177;DHT22;31511;46.176;9.874;2023-04-01T15:38:45;17.00;99.90
40177;DHT22;31511;46.176;9.874;2023-04-01T15:50:46;17.00;99.90
40177;DHT22;31511;46.176;9.874;2023-04-01T15:53:37;17.10;99.90
40177;DHT22;31511;46.176;9.874;2023-04-01T15:59:37;17.10;99.90
40177;DHT22;31511;46.176;9.874;2023-04-01T16:02:32;17.10;99.90
40177;DHT22;31511;46.176;9.874;2023-04-01T16:05:40;17.10;99.90
40177;DHT22;31511;46.176;9.874;2023-04-01T16:11:29;17.00;99.90
40177;DHT22;31511;46.176;9.874;2023-04-01T16:25:40;17.00;99.90
40177;DHT22;31511;46.176;9.874;2023-04-01T16:28:32;16.90;99.90
40177;DHT22;31511;46.176;9.874;2023-04-01T16:34:25;16.80;99.90
40177;DHT22;31511;46.176;9.874;2023-04-01T16:43:09;16.50;99.90
40177;DHT22;31511;46.176;9.874;2023-04-01T16:49:17;16.30;99.90
40177;DHT22;31511;46.176;9.874;2023-04-01T16:54:52;16.10;99.90
40177;DHT22;31511;46.176;9.874;2023-04-01T16:57:48;16.00;99.90
40177;DHT22;31511;46.176;9.874;2023-04-01T17:00:41;15.90;99.90
40177;DHT22;31511;46.176;9.874;2023-04-01T17:03:33;15.80;99.90
40177;DHT22;31511;46.176;9.874;2023-04-01T17:06:25;15.70;99.90
40177;DHT22;31511;46.176;9.874;2023-04-01T17:12:27;15.50;99.90
40177;DHT22;31511;46.176;9.874;2023-04-01T17:15:32;15.30;99.90
40177;DHT22;31511;46.176;9.874;2023-04-01T17:21:07;15.10;99.90
40177;DHT22;31511;46.176;9.874;2023-04-01T17:24:21;15.00;99.90
40177;DHT22;31511;46.176;9.874;2023-04-01T17:27:30;14.90;99.90
40177;DHT22;31511;46.176;9.874;2023-04-01T17:30:25;14.80;99.90
40177;DHT22;31511;46.176;9.874;2023-04-01T17:33:20;14.80;99.90
40177;DHT22;31511;46.176;9.874;2023-04-01T17:39:18;14.60;99.90
40177;DHT22;31511;46.176;9.874;2023-04-01T17:45:30;14.50;99.90
40177;DHT22;31511;46.176;9.874;2023-04-01T17:48:30;14.40;99.90
40177;DHT22;31511;46.176;9.874;2023-04-01T17:51:23;14.50;99.90
40177;DHT22;31511;46.176;9.874;2023-04-01T17:55:16;14.40;99.90
40177;DHT22;31511;46.176;9.874;2023-04-01T17:57:29;14.30;99.90
40177;DHT22;31511;46.176;9.874;2023-04-01T18:00:23;14.20;99.90
40177;DHT22;31511;46.176;9.874;2023-04-01T18:14:54;13.90;99.90
40177;DHT22;31511;46.176;9.874;2023-04-01T18:27:01;13.60;99.90
40177;DHT22;31511;46.176;9.874;2023-04-01T18:29:58;13.50;99.90
40177;DHT22;31511;46.176;9.874;2023-04-01T18:32:57;13.50;99.90
40177;DHT22;31511;46.176;9.874;2023-04-01T18:38:48;13.40;99.90
40177;DHT22;31511;46.176;9.874;2023-04-01T18:41:35;13.30;99.90
40177;DHT22;31511;46.176;9.874;2023-04-01T18:44:38;13.30;99.90
40177;DHT22;31511;46.176;9.874;2023-04-01T18:47:43;13.30;99.90
40177;DHT22;31511;46.176;9.874;2023-04-01T18:56:15;13.10;99.90
40177;DHT22;31511;46.176;9.874;2023-04-01T19:10:42;12.90;99.90
40177;DHT22;31511;46.176;9.874;2023-04-01T19:22:22;12.50;99.90
40177;DHT22;31511;46.176;9.874;2023-04-01T19:30:51;12.30;99.90
40177;DHT22;31511;46.176;9.874;2023-04-01T19:36:49;12.20;99.90
40177;DHT22;31511;46.176;9.874;2023-04-01T19:54:47;12.60;99.90
40177;DHT22;31511;46.176;9.874;2023-04-01T20:05:50;12.50;99.90
40177;DHT22;31511;46.176;9.874;2023-04-01T20:14:43;12.70;99.90
40177;DHT22;31511;46.176;9.874;2023-04-01T20:20:21;12.50;99.90
40177;DHT22;31511;46.176;9.874;2023-04-01T20:26:11;12.30;99.90
40177;DHT22;31511;46.176;9.874;2023-04-01T20:32:11;12.30;99.90
40177;DHT22;31511;46.176;9.874;2023-04-01T20:38:12;12.50;99.90
40177;DHT22;31511;46.176;9.874;2023-04-01T20:53:05;12.20;99.90
40177;DHT22;31511;46.176;9.874;2023-04-01T20:56:02;12.20;99.90
40177;DHT22;31511;46.176;9.874;2023-04-01T21:19:31;11.70;99.90
40177;DHT22;31511;46.176;9.874;2023-04-01T21:22:40;11.50;99.90
40177;DHT22;31511;46.176;9.874;2023-04-01T21:28:25;11.30;99.90
40177;DHT22;31511;46.176;9.874;2023-04-01T21:31:27;11.30;99.90
40177;DHT22;31511;46.176;9.874;2023-04-01T22:07:25;10.70;99.90
40177;DHT22;31511;46.176;9.874;2023-04-01T22:13:04;10.70;99.90
40177;DHT22;31511;46.176;9.874;2023-04-01T22:15:56;10.70;99.90
40177;DHT22;31511;46.176;9.874;2023-04-01T22:18:45;10.50;99.90
40177;DHT22;31511;46.176;9.874;2023-04-01T22:24:17;10.20;99.90
40177;DHT22;31511;46.176;9.874;2023-04-01T22:32:47;10.30;99.90
40177;DHT22;31511;46.176;9.874;2023-04-01T22:35:52;10.30;99.90
40177;DHT22;31511;46.176;9.874;2023-04-01T22:41:29;10.30;99.90
40177;DHT22;31511;46.176;9.874;2023-04-01T22:44:23;10.20;99.90
40177;DHT22;31511;46.176;9.874;2023-04-01T22:50:03;10.30;99.90
40177;DHT22;31511;46.176;9.874;2023-04-01T22:52:57;10.20;99.90
40177;DHT22;31511;46.176;9.874;2023-04-01T22:55:44;10.20;99.90
40177;DHT22;31511;46.176;9.874;2023-04-01T22:58:40;9.90;99.90
40177;DHT22;31511;46.176;9.874;2023-04-01T23:01:29;10.00;99.90
40177;DHT22;31511;46.176;9.874;2023-04-01T23:04:15;10.00;99.90
40177;DHT22;31511;46.176;9.874;2023-04-01T23:07:02;10.00;99.90
40177;DHT22;31511;46.176;9.874;2023-04-01T23:09:48;9.90;99.90
40177;DHT22;31511;46.176;9.874;2023-04-01T23:12:33;10.00;99.90
40177;DHT22;31511;46.176;9.874;2023-04-01T23:15:17;10.00;99.90
40177;DHT22;31511;46.176;9.874;2023-04-01T23:18:09;10.00;99.90
40177;DHT22;31511;46.176;9.874;2023-04-01T23:29:51;10.00;99.90
40177;DHT22;31511;46.176;9.874;2023-04-01T23:32:36;9.90;99.90
40177;DHT22;31511;46.176;9.874;2023-04-01T23:35:21;9.60;99.90
40177;DHT22;31511;46.176;9.874;2023-04-01T23:38:07;9.60;99.90
40177;DHT22;31511;46.176;9.874;2023-04-01T23:40:53;9.70;99.90
40177;DHT22;31511;46.176;9.874;2023-04-01T23:43:37;9.60;99.90
40177;DHT22;31511;46.176;9.874;2023-04-01T23:46:23;9.60;99.90
40177;DHT22;31511;46.176;9.874;2023-04-01T23:49:14;9.60;99.90
40177;DHT22;31511;46.176;9.874;2023-04-01T23:52:21;9.70;99.90
